Time;durP1;ratioP1;P1;durP2;ratioP2;P2;SDS_P1;SDS_P2;PMS_P1;PMS_P2;Temp;Humidity;BMP_temperature;BMP_pressure;BME280_temperature;BME280_humidity;BME280_pressure;Samples;Min_cycle;Max_cycle;Signal;HPM_P1;HPM_P2
2022/01/02 00:01:47;;;;;;;13.57;6.05;;;10.90;99.90;;;;;;5040218;28;20056;-92
2022/01/02 00:04:18;;;;;;;13.02;6.45;;;10.90;99.90;;;;;;5040348;28;20490;-92
2022/01/02 00:06:52;;;;;;;14.05;6.35;;;10.80;99.90;;;;;;5040125;28;20060;-92
2022/01/02 00:09:33;;;;;;;14.30;6.93;;;10.80;99.90;;;;;;5040084;28;20060;-92
2022/01/02 00:12:08;;;;;;;13.55;6.32;;;11.00;99.90;;;;;;5039382;28;20055;-92
2022/01/02 00:14:36;;;;;;;19.10;7.18;;;10.80;99.90;;;;;;5056092;28;20048;-93
2022/01/02 00:17:04;;;;;;;14.13;6.50;;;10.90;99.90;;;;;;5039772;28;20048;-92
2022/01/02 00:19:32;;;;;;;17.67;7.30;;;10.80;99.90;;;;;;5039723;28;20053;-92
2022/01/02 00:22:01;;;;;;;17.13;7.00;;;10.90;99.90;;;;;;5039500;28;20127;-91
2022/01/02 00:24:29;;;;;;;14.00;6.68;;;11.00;99.90;;;;;;5039142;28;20048;-93
2022/01/02 00:26:56;;;;;;;14.80;6.30;;;10.70;99.90;;;;;;5056015;28;20049;-93
2022/01/02 00:29:23;;;;;;;14.93;7.63;;;10.80;99.90;;;;;;5055845;28;20056;-91
2022/01/02 00:31:50;;;;;;;13.70;7.38;;;10.90;99.90;;;;;;5039328;28;20048;-91
2022/01/02 00:34:17;;;;;;;14.02;6.85;;;10.70;99.90;;;;;;5056607;28;20056;-92
2022/01/02 00:36:46;;;;;;;13.85;6.65;;;10.50;99.90;;;;;;5039485;28;20087;-95
2022/01/02 00:39:12;;;;;;;11.88;6.60;;;10.70;99.90;;;;;;5056204;28;20053;-93
2022/01/02 00:41:54;;;;;;;23.70;7.78;;;10.80;99.90;;;;;;5039525;28;20056;-92
2022/01/02 00:44:43;;;;;;;16.38;6.95;;;10.70;99.90;;;;;;5039428;28;20067;-92
2022/01/02 00:47:20;;;;;;;17.42;7.45;;;10.70;99.90;;;;;;5039293;28;20068;-92
2022/01/02 00:50:07;;;;;;;15.68;6.75;;;10.70;99.90;;;;;;5039208;28;20117;-92
2022/01/02 00:52:44;;;;;;;15.57;7.30;;;10.70;99.90;;;;;;5039315;28;20135;-91
2022/01/02 00:55:18;;;;;;;14.35;6.90;;;10.70;99.90;;;;;;5038909;28;20059;-92
2022/01/02 00:58:07;;;;;;;15.70;7.13;;;10.70;99.90;;;;;;5039000;28;20049;-91
2022/01/02 01:01:06;;;;;;;16.40;7.45;;;10.70;99.90;;;;;;4940484;28;20460;-91
2022/01/02 01:03:33;;;;;;;14.60;7.30;;;10.70;99.90;;;;;;4940786;28;20145;-93
2022/01/02 01:06:04;;;;;;;16.58;7.60;;;10.80;99.90;;;;;;4940628;28;20058;-92
2022/01/02 01:08:31;;;;;;;15.97;6.13;;;10.70;99.90;;;;;;4956506;28;20062;-92
2022/01/02 01:11:03;;;;;;;19.17;7.65;;;10.70;99.90;;;;;;4940131;28;20748;-92
2022/01/02 01:13:29;;;;;;;15.63;7.40;;;10.70;99.90;;;;;;4956094;28;20059;-92
2022/01/02 01:15:54;;;;;;;25.70;8.15;;;10.70;99.90;;;;;;4956699;28;20054;-92
2022/01/02 01:18:21;;;;;;;26.80;8.52;;;10.70;99.90;;;;;;4956368;28;20062;-92
2022/01/02 01:20:47;;;;;;;19.00;7.70;;;10.70;99.90;;;;;;4956436;28;20062;-93
2022/01/02 01:23:16;;;;;;;14.63;7.35;;;10.70;99.90;;;;;;4958342;28;20054;-89
2022/01/02 01:25:45;;;;;;;23.25;8.00;;;10.70;99.90;;;;;;4943878;28;20129;-91
2022/01/02 01:28:12;;;;;;;21.58;9.07;;;10.70;99.90;;;;;;4975896;28;20055;-90
2022/01/02 01:30:37;;;;;;;27.02;9.48;;;10.70;99.90;;;;;;4959397;28;20055;-90
2022/01/02 01:33:03;;;;;;;20.55;8.00;;;10.80;99.90;;;;;;4975217;28;20105;-90
2022/01/02 01:35:29;;;;;;;18.83;7.90;;;10.70;99.90;;;;;;4975574;28;20505;-89
2022/01/02 01:37:54;;;;;;;19.20;8.00;;;10.70;99.90;;;;;;5027949;28;20053;-91
2022/01/02 01:40:20;;;;;;;16.63;7.88;;;10.80;99.90;;;;;;5058534;28;20182;-90
2022/01/02 01:42:59;;;;;;;20.40;8.02;;;10.70;99.90;;;;;;5058152;28;20045;-90
2022/01/02 01:45:28;;;;;;;19.00;7.25;;;10.70;99.90;;;;;;5041913;28;20094;-89
2022/01/02 01:48:01;;;;;;;22.23;8.07;;;10.60;99.90;;;;;;5058363;28;20052;-90
2022/01/02 01:50:30;;;;;;;24.02;9.50;;;10.60;99.90;;;;;;5041792;28;20147;-90
2022/01/02 01:52:56;;;;;;;17.63;7.75;;;10.60;99.90;;;;;;5058619;28;20048;-91
2022/01/02 01:55:21;;;;;;;17.52;8.15;;;10.80;99.90;;;;;;5058067;28;20384;-91
2022/01/02 01:57:49;;;;;;;27.00;9.05;;;10.60;99.90;;;;;;5042171;28;20409;-92
2022/01/02 02:00:18;;;;;;;16.33;7.45;;;10.60;99.90;;;;;;5058990;28;20414;-91
2022/01/02 02:02:45;;;;;;;18.73;7.38;;;10.80;99.90;;;;;;5058702;28;20079;-91
2022/01/02 02:05:11;;;;;;;28.63;9.45;;;10.70;99.90;;;;;;5042048;28;20517;-91
2022/01/02 02:07:41;;;;;;;26.60;8.57;;;10.70;99.90;;;;;;5041829;28;20103;-91
2022/01/02 02:10:18;;;;;;;23.60;8.90;;;10.70;99.90;;;;;;5041706;28;20059;-91
2022/01/02 02:12:47;;;;;;;18.55;8.55;;;10.70;99.90;;;;;;5042062;28;20139;-91
2022/01/02 02:15:16;;;;;;;18.90;8.88;;;10.70;99.90;;;;;;5058059;28;20052;-91
2022/01/02 02:17:46;;;;;;;21.25;7.70;;;10.70;99.90;;;;;;5041701;28;20083;-91
2022/01/02 02:20:16;;;;;;;24.98;8.13;;;10.70;99.90;;;;;;5058247;28;20071;-90
2022/01/02 02:22:45;;;;;;;24.48;8.60;;;10.80;99.90;;;;;;5057831;28;20107;-91
2022/01/02 02:25:16;;;;;;;23.23;8.25;;;10.70;99.90;;;;;;5041932;28;20048;-90
2022/01/02 02:28:02;;;;;;;25.30;8.27;;;10.70;99.90;;;;;;5057888;28;20044;-90
2022/01/02 02:30:30;;;;;;;31.38;8.60;;;10.80;99.90;;;;;;5040895;28;20044;-90
2022/01/02 02:32:58;;;;;;;22.23;8.65;;;10.70;99.90;;;;;;5057930;28;20056;-91
2022/01/02 02:35:25;;;;;;;22.08;8.43;;;11.00;99.90;;;;;;5040347;28;20056;-90
2022/01/02 02:37:51;;;;;;;18.83;7.53;;;10.70;99.90;;;;;;5058153;28;20398;-91
2022/01/02 02:40:19;;;;;;;21.33;8.45;;;10.80;99.90;;;;;;5057965;28;20057;-91
2022/01/02 02:43:01;;;;;;;23.40;9.05;;;10.80;99.90;;;;;;5041286;28;20135;-95
2022/01/02 02:51:41;;;;;;;25.08;8.60;;;10.70;99.90;;;;;;5057802;28;20052;-90
2022/01/02 02:54:08;;;;;;;20.15;8.20;;;10.70;99.90;;;;;;5040791;28;20049;-92
2022/01/02 02:56:46;;;;;;;26.08;9.13;;;10.70;99.90;;;;;;5057795;28;20056;-91
2022/01/02 02:59:12;;;;;;;23.98;8.93;;;10.80;99.90;;;;;;5040700;28;20075;-91
2022/01/02 03:01:39;;;;;;;25.80;8.30;;;10.70;99.90;;;;;;5057769;28;20060;-89
2022/01/02 03:04:05;;;;;;;21.92;9.05;;;10.90;99.90;;;;;;5057714;28;20103;-91
2022/01/02 03:06:31;;;;;;;20.85;7.45;;;10.60;99.90;;;;;;5040710;28;20498;-92
2022/01/02 03:09:04;;;;;;;24.20;9.18;;;10.60;99.90;;;;;;5040805;28;20414;-92
2022/01/02 03:11:30;;;;;;;25.25;8.85;;;10.70;99.90;;;;;;5040208;28;20190;-91
2022/01/02 03:13:56;;;;;;;23.02;8.45;;;10.70;99.90;;;;;;5041123;28;20139;-92
2022/01/02 03:16:59;;;;;;;23.58;8.38;;;10.70;99.90;;;;;;5040903;28;20131;-91
2022/01/02 03:19:24;;;;;;;21.65;8.70;;;10.70;99.90;;;;;;5040253;28;20049;-91
2022/01/02 03:21:50;;;;;;;28.67;9.15;;;10.70;99.90;;;;;;5040344;28;20055;-92
2022/01/02 03:24:16;;;;;;;21.15;8.35;;;10.70;99.90;;;;;;5040334;28;20482;-92
2022/01/02 03:26:44;;;;;;;32.28;9.23;;;10.70;99.90;;;;;;5057368;28;20056;-91
2022/01/02 03:29:10;;;;;;;19.08;7.63;;;10.80;99.90;;;;;;5057071;28;20088;-92
2022/01/02 03:31:35;;;;;;;27.90;8.65;;;10.70;99.90;;;;;;5040075;28;20094;-91
2022/01/02 03:34:01;;;;;;;17.33;7.47;;;10.70;99.90;;;;;;5039921;28;20064;-90
2022/01/02 03:36:27;;;;;;;20.63;6.95;;;10.70;99.90;;;;;;5040264;28;20513;-90
2022/01/02 03:38:52;;;;;;;19.52;7.28;;;10.70;99.90;;;;;;5056671;28;20056;-92
2022/01/02 03:41:18;;;;;;;20.90;7.68;;;10.80;99.90;;;;;;5040448;28;20513;-91
2022/01/02 03:43:44;;;;;;;24.55;7.22;;;10.70;99.90;;;;;;5056667;28;20135;-93
2022/01/02 03:46:09;;;;;;;22.88;7.97;;;10.80;99.90;;;;;;5040407;28;20063;-90
2022/01/02 03:48:35;;;;;;;19.60;6.85;;;10.90;99.90;;;;;;5040073;28;20048;-90
2022/01/02 03:51:01;;;;;;;20.27;7.03;;;10.80;99.90;;;;;;5056086;28;20490;-92
2022/01/02 03:53:26;;;;;;;22.80;7.55;;;10.80;99.90;;;;;;5039804;28;20052;-92
2022/01/02 03:55:53;;;;;;;22.23;7.47;;;10.80;99.90;;;;;;5056712;28;20053;-93
2022/01/02 03:58:18;;;;;;;16.80;6.28;;;11.00;99.90;;;;;;5039420;28;20518;-90
2022/01/02 04:01:04;;;;;;;21.08;7.03;;;10.90;99.90;;;;;;5039564;28;20056;-91
2022/01/02 04:03:29;;;;;;;23.05;7.32;;;10.90;99.90;;;;;;5039367;28;20508;-91
2022/01/02 04:05:55;;;;;;;18.17;6.50;;;10.90;99.90;;;;;;5056447;28;20056;-89
2022/01/02 04:08:21;;;;;;;22.88;6.50;;;11.00;99.90;;;;;;5039608;28;20480;-91
2022/01/02 04:10:46;;;;;;;21.50;6.82;;;11.00;99.90;;;;;;5039228;28;20111;-91
2022/01/02 04:13:12;;;;;;;20.80;6.18;;;11.00;99.90;;;;;;5056170;28;20045;-92
2022/01/02 04:15:38;;;;;;;24.17;7.38;;;11.00;99.90;;;;;;5056033;28;20494;-92
2022/01/02 04:18:03;;;;;;;18.15;6.68;;;11.00;99.90;;;;;;5055977;28;20061;-90
2022/01/02 04:20:29;;;;;;;22.10;6.30;;;11.00;99.90;;;;;;5039644;28;20075;-91
2022/01/02 04:22:55;;;;;;;10.73;4.68;;;10.90;99.90;;;;;;5039717;28;20053;-89
2022/01/02 04:25:21;;;;;;;21.63;5.95;;;11.00;99.90;;;;;;5038975;28;20524;-91
2022/01/02 04:27:47;;;;;;;18.70;5.97;;;11.00;99.90;;;;;;5039375;28;20568;-91
2022/01/02 04:30:14;;;;;;;22.35;6.95;;;11.00;99.90;;;;;;5055819;28;20048;-92
2022/01/02 04:32:40;;;;;;;20.33;6.20;;;11.00;99.90;;;;;;5038896;28;20379;-88
2022/01/02 04:35:06;;;;;;;25.00;6.30;;;11.00;99.90;;;;;;5055894;28;20453;-91
2022/01/02 04:37:32;;;;;;;18.42;5.90;;;11.10;99.90;;;;;;5039500;28;20143;-91
2022/01/02 04:39:58;;;;;;;23.00;6.20;;;11.10;99.90;;;;;;5039354;28;20061;-92
2022/01/02 04:42:24;;;;;;;16.45;5.50;;;11.10;99.90;;;;;;5039075;28;20063;-92
2022/01/02 04:44:53;;;;;;;26.42;5.60;;;11.10;99.90;;;;;;5056006;28;20375;-91
2022/01/02 04:47:18;;;;;;;17.98;5.57;;;11.30;99.90;;;;;;5055061;28;20056;-91
2022/01/02 04:49:44;;;;;;;15.98;5.95;;;11.20;99.90;;;;;;5055341;28;20142;-91
2022/01/02 04:52:10;;;;;;;17.38;5.43;;;11.20;99.90;;;;;;5055968;28;20056;-91
2022/01/02 04:54:35;;;;;;;22.20;5.28;;;11.10;99.90;;;;;;5054905;28;20532;-88
2022/01/02 04:57:01;;;;;;;20.20;6.00;;;11.20;99.90;;;;;;5038024;28;20410;-90
2022/01/02 04:59:27;;;;;;;17.17;5.85;;;11.20;99.90;;;;;;5038631;28;20063;-89
2022/01/02 05:01:52;;;;;;;21.83;5.53;;;11.30;99.90;;;;;;5055003;28;20076;-91
2022/01/02 05:04:21;;;;;;;16.73;5.00;;;11.30;99.90;;;;;;5038487;28;20048;-90
2022/01/02 05:06:47;;;;;;;20.33;5.00;;;11.30;99.90;;;;;;5055508;28;20048;-90
2022/01/02 05:09:12;;;;;;;17.00;5.13;;;11.30;99.90;;;;;;5038959;28;20399;-92
2022/01/02 05:11:38;;;;;;;23.67;5.70;;;11.40;99.90;;;;;;5054680;28;20105;-89
2022/01/02 05:14:04;;;;;;;20.38;5.25;;;11.30;99.90;;;;;;5038572;28;20083;-89
2022/01/02 05:16:29;;;;;;;29.02;5.63;;;11.30;99.90;;;;;;5038543;28;20056;-88
2022/01/02 05:18:55;;;;;;;18.45;5.40;;;11.30;99.90;;;;;;5038507;28;20534;-92
2022/01/02 05:21:21;;;;;;;19.55;4.43;;;11.40;99.90;;;;;;5055217;28;20553;-91
2022/01/02 05:23:47;;;;;;;16.35;4.97;;;11.40;99.90;;;;;;5038864;28;20091;-92
2022/01/02 05:26:13;;;;;;;16.70;4.38;;;11.40;99.90;;;;;;5055334;28;20056;-92
2022/01/02 05:28:38;;;;;;;18.60;5.13;;;11.40;99.90;;;;;;5055172;28;20081;-93
2022/01/02 05:31:04;;;;;;;17.52;4.20;;;11.40;99.90;;;;;;5038518;28;20048;-89
2022/01/02 05:33:30;;;;;;;18.85;4.78;;;11.60;99.90;;;;;;5038563;28;20569;-92
2022/01/02 05:35:55;;;;;;;15.75;4.88;;;11.50;99.90;;;;;;5055180;28;20063;-92
2022/01/02 05:38:21;;;;;;;13.98;4.15;;;11.40;99.90;;;;;;5055436;28;20045;-89
2022/01/02 05:40:49;;;;;;;17.08;4.40;;;11.50;99.90;;;;;;5054859;28;20048;-90
2022/01/02 05:43:15;;;;;;;20.70;4.68;;;11.50;99.90;;;;;;5054812;28;20060;-88
2022/01/02 05:45:41;;;;;;;16.85;4.15;;;11.60;99.90;;;;;;5055184;28;20044;-92
2022/01/02 05:48:08;;;;;;;21.63;4.68;;;11.60;99.90;;;;;;5055000;28;20577;-91
2022/01/02 05:50:34;;;;;;;12.77;3.60;;;11.60;99.90;;;;;;5054534;28;20048;-91
2022/01/02 05:52:59;;;;;;;15.75;4.50;;;11.80;99.90;;;;;;5055172;28;20045;-92
2022/01/02 05:55:25;;;;;;;17.33;4.15;;;11.60;99.90;;;;;;5038054;28;20063;-88
2022/01/02 05:57:51;;;;;;;19.30;4.25;;;11.60;99.90;;;;;;5038143;28;20113;-88
2022/01/02 06:00:16;;;;;;;16.52;4.35;;;11.60;99.90;;;;;;5038088;28;20434;-88
2022/01/02 06:02:42;;;;;;;16.92;4.50;;;11.70;99.90;;;;;;5055019;28;20397;-91
2022/01/02 06:05:08;;;;;;;13.80;3.35;;;11.80;99.90;;;;;;5054770;28;20052;-89
2022/01/02 06:07:34;;;;;;;13.95;4.28;;;11.60;99.90;;;;;;5038360;28;20063;-92
2022/01/02 06:10:02;;;;;;;14.48;4.20;;;11.60;99.90;;;;;;5056384;28;20513;-90
2022/01/02 06:12:28;;;;;;;12.13;3.65;;;11.60;99.90;;;;;;5041519;28;20399;-89
2022/01/02 06:14:53;;;;;;;13.15;3.40;;;11.80;99.90;;;;;;5057743;28;20056;-90
2022/01/02 06:17:19;;;;;;;12.90;3.88;;;11.60;99.90;;;;;;5041396;28;20147;-91
2022/01/02 06:19:44;;;;;;;12.63;3.67;;;11.70;99.90;;;;;;5058338;28;20494;-91
2022/01/02 06:22:10;;;;;;;14.70;4.20;;;11.70;99.90;;;;;;5058283;28;20136;-92
2022/01/02 06:24:36;;;;;;;12.40;3.67;;;11.60;99.90;;;;;;5057919;28;20086;-90
2022/01/02 06:27:01;;;;;;;12.98;3.85;;;11.60;99.90;;;;;;5041505;28;20056;-91
2022/01/02 06:29:27;;;;;;;13.68;4.05;;;11.60;99.90;;;;;;5058693;28;20075;-90
2022/01/02 06:31:53;;;;;;;14.48;4.28;;;11.50;99.90;;;;;;5057931;28;20494;-92
2022/01/02 06:34:19;;;;;;;13.27;4.63;;;11.60;99.90;;;;;;5041677;28;20490;-90
2022/01/02 06:36:45;;;;;;;12.52;4.43;;;11.60;99.90;;;;;;5041531;28;20170;-92
2022/01/02 06:39:10;;;;;;;14.55;3.92;;;11.60;99.90;;;;;;5041537;28;20052;-93
2022/01/02 06:41:36;;;;;;;16.67;4.60;;;11.40;99.90;;;;;;5057779;28;20088;-91
2022/01/02 06:44:02;;;;;;;14.57;4.45;;;11.50;99.90;;;;;;5041556;28;20118;-92
2022/01/02 06:46:28;;;;;;;13.18;3.70;;;11.50;99.90;;;;;;5057849;28;20063;-91
2022/01/02 06:48:54;;;;;;;13.38;3.78;;;11.50;99.90;;;;;;5041727;28;20053;-91
2022/01/02 06:51:20;;;;;;;18.15;3.75;;;11.50;99.90;;;;;;5041349;28;20398;-91
2022/01/02 06:53:45;;;;;;;9.82;3.95;;;11.50;99.90;;;;;;5041314;28;20056;-91
2022/01/02 06:56:11;;;;;;;12.23;3.78;;;11.50;99.90;;;;;;5041246;28;20061;-91
2022/01/02 06:58:38;;;;;;;17.25;3.72;;;11.40;99.90;;;;;;5041286;28;20084;-90
2022/01/02 07:01:05;;;;;;;10.88;3.42;;;11.40;99.90;;;;;;5041046;28;20052;-90
2022/01/02 07:03:32;;;;;;;12.18;3.60;;;11.40;99.90;;;;;;5041026;28;20114;-90
2022/01/02 07:05:59;;;;;;;9.10;3.38;;;11.40;99.90;;;;;;5057407;28;20049;-91
2022/01/02 07:08:25;;;;;;;11.77;3.40;;;11.40;99.90;;;;;;5041196;28;20091;-90
2022/01/02 07:10:50;;;;;;;12.02;3.70;;;11.50;99.90;;;;;;5057426;28;20506;-91
2022/01/02 07:13:16;;;;;;;11.57;4.03;;;11.30;99.90;;;;;;5057763;28;20044;-92
2022/01/02 07:15:42;;;;;;;14.00;4.35;;;11.40;99.90;;;;;;5041023;28;20387;-91
2022/01/02 07:18:07;;;;;;;11.80;3.63;;;11.30;99.90;;;;;;5041074;28;20102;-90
2022/01/02 07:20:33;;;;;;;17.30;3.70;;;11.40;99.90;;;;;;5040780;28;20052;-92
2022/01/02 07:22:59;;;;;;;12.07;3.83;;;11.20;99.90;;;;;;5056988;28;20390;-90
2022/01/02 07:25:25;;;;;;;13.88;4.03;;;11.10;99.90;;;;;;5056522;28;20052;-91
2022/01/02 07:27:50;;;;;;;11.57;3.63;;;11.20;99.90;;;;;;5057261;28;20060;-89
2022/01/02 07:30:16;;;;;;;11.25;4.20;;;11.20;99.90;;;;;;5040228;28;20053;-91
2022/01/02 07:32:43;;;;;;;15.02;4.03;;;11.30;99.90;;;;;;5040517;28;20049;-91
2022/01/02 07:35:09;;;;;;;10.57;3.50;;;11.20;99.90;;;;;;5056894;28;20052;-88
2022/01/02 07:37:36;;;;;;;9.57;3.83;;;11.20;99.90;;;;;;5057125;28;20059;-91
2022/01/02 07:40:06;;;;;;;11.20;4.60;;;11.30;99.90;;;;;;5056752;28;20049;-91
2022/01/02 07:42:31;;;;;;;10.73;3.80;;;11.20;99.90;;;;;;5057627;28;20048;-91
2022/01/02 07:44:58;;;;;;;17.35;4.95;;;11.20;99.90;;;;;;5040449;28;20402;-92
2022/01/02 07:48:03;;;;;;;13.98;4.50;;;11.30;99.90;;;;;;5057569;28;20052;-92
2022/01/02 07:50:29;;;;;;;13.00;4.43;;;11.20;99.90;;;;;;5039908;28;20056;-91
2022/01/02 07:52:55;;;;;;;12.50;4.25;;;11.20;99.90;;;;;;5039648;28;20136;-91
2022/01/02 07:55:21;;;;;;;12.23;4.55;;;11.20;99.90;;;;;;5050376;28;20056;-90
2022/01/02 07:57:46;;;;;;;11.23;3.90;;;11.20;99.90;;;;;;5043271;28;20057;-90
2022/01/02 08:00:13;;;;;;;17.80;4.30;;;11.10;99.90;;;;;;5042906;28;20493;-92
2022/01/02 08:02:39;;;;;;;9.68;3.33;;;11.10;99.90;;;;;;5059508;28;20066;-88
2022/01/02 08:05:07;;;;;;;13.95;3.90;;;11.10;99.90;;;;;;5059696;28;20107;-92
2022/01/02 08:07:33;;;;;;;12.32;3.92;;;11.10;99.90;;;;;;5076324;28;20051;-91
2022/01/02 08:09:59;;;;;;;11.07;4.18;;;11.10;99.90;;;;;;5059406;28;20087;-92
2022/01/02 08:12:24;;;;;;;11.88;4.53;;;11.10;99.90;;;;;;5075848;28;20469;-91
2022/01/02 08:14:50;;;;;;;12.90;3.95;;;11.10;99.90;;;;;;5075631;28;20143;-90
2022/01/02 08:17:16;;;;;;;14.70;3.83;;;11.00;99.90;;;;;;5075626;28;20083;-91
2022/01/02 08:19:41;;;;;;;13.25;4.85;;;11.00;99.90;;;;;;5075322;28;20047;-91
2022/01/02 08:22:07;;;;;;;14.43;4.53;;;11.00;99.90;;;;;;5075854;28;20059;-92
2022/01/02 08:24:33;;;;;;;16.48;4.45;;;11.00;99.90;;;;;;5059102;28;20098;-91
2022/01/02 08:26:59;;;;;;;11.05;4.40;;;11.00;99.90;;;;;;5092475;28;20095;-91
2022/01/02 08:29:25;;;;;;;10.82;4.53;;;10.80;99.90;;;;;;5075877;28;20048;-90
2022/01/02 08:31:50;;;;;;;18.92;5.07;;;11.00;99.90;;;;;;5072442;28;20040;-92
2022/01/02 08:34:16;;;;;;;12.25;4.68;;;11.00;99.90;;;;;;5055607;28;20064;-92
2022/01/02 08:36:42;;;;;;;9.90;4.43;;;11.00;99.90;;;;;;5038608;28;20099;-93
2022/01/02 08:39:07;;;;;;;13.60;4.70;;;10.90;99.90;;;;;;5039711;28;20055;-90
2022/01/02 08:41:33;;;;;;;8.27;4.35;;;10.90;99.90;;;;;;5039168;28;20052;-90
2022/01/02 08:43:59;;;;;;;9.43;4.40;;;10.90;99.90;;;;;;5038806;28;20063;-90
2022/01/02 08:46:24;;;;;;;10.43;3.90;;;11.00;99.90;;;;;;5045498;28;20041;-91
2022/01/02 08:48:50;;;;;;;14.20;4.28;;;10.90;99.90;;;;;;5030464;28;20138;-91
2022/01/02 08:51:16;;;;;;;12.13;4.82;;;10.90;99.90;;;;;;5054521;28;20044;-93
2022/01/02 08:53:43;;;;;;;9.98;4.63;;;11.00;99.90;;;;;;5038816;28;20053;-94
2022/01/02 08:56:09;;;;;;;13.02;4.45;;;10.90;99.90;;;;;;5055562;28;20110;-93
2022/01/02 08:58:34;;;;;;;9.93;4.00;;;11.00;99.90;;;;;;5039022;28;20060;-93
2022/01/02 09:01:00;;;;;;;8.75;3.78;;;11.00;99.90;;;;;;5055797;28;20067;-88
2022/01/02 09:03:26;;;;;;;12.93;4.32;;;11.10;99.90;;;;;;5055785;28;20068;-93
2022/01/02 09:05:52;;;;;;;12.02;4.38;;;11.00;99.90;;;;;;5038849;28;20048;-92
2022/01/02 09:08:18;;;;;;;9.05;4.15;;;11.10;99.90;;;;;;5039302;28;20414;-93
2022/01/02 09:10:44;;;;;;;12.30;4.00;;;11.10;99.90;;;;;;5055118;28;20040;-93
2022/01/02 09:13:10;;;;;;;11.13;4.55;;;11.10;99.90;;;;;;5055487;28;20052;-91
2022/01/02 09:15:36;;;;;;;9.35;4.38;;;11.10;99.90;;;;;;5055090;28;20060;-92
2022/01/02 09:18:03;;;;;;;7.72;3.40;;;11.10;99.90;;;;;;5055102;28;20048;-93
2022/01/02 09:20:28;;;;;;;7.38;3.55;;;11.30;99.90;;;;;;5054651;28;20157;-92
2022/01/02 09:22:55;;;;;;;12.32;4.45;;;11.10;99.90;;;;;;5055402;28;20087;-93
2022/01/02 09:25:20;;;;;;;11.75;3.97;;;11.10;99.90;;;;;;5055346;28;20414;-94
2022/01/02 09:27:46;;;;;;;9.95;3.72;;;11.00;99.90;;;;;;5038611;28;20063;-92
2022/01/02 09:30:13;;;;;;;7.68;3.88;;;11.10;99.90;;;;;;5055154;28;20057;-91
2022/01/02 09:32:40;;;;;;;8.55;4.15;;;11.10;99.90;;;;;;5059401;28;20163;-93
2022/01/02 09:35:08;;;;;;;9.77;3.60;;;11.10;99.90;;;;;;5043417;28;20056;-93
2022/01/02 09:37:34;;;;;;;6.55;3.38;;;11.10;99.90;;;;;;5038586;28;20060;-89
2022/01/02 09:40:04;;;;;;;16.85;4.13;;;11.10;99.90;;;;;;5054928;28;20048;-92
2022/01/02 09:42:31;;;;;;;6.95;3.40;;;11.10;99.90;;;;;;5043399;28;20523;-90
2022/01/02 09:44:56;;;;;;;7.47;3.85;;;11.20;99.90;;;;;;5038358;28;20147;-89
2022/01/02 09:47:23;;;;;;;10.70;3.97;;;11.00;99.90;;;;;;5023993;28;20135;-93
2022/01/02 09:49:49;;;;;;;13.27;4.40;;;11.10;99.90;;;;;;5022712;28;20052;-95
2022/01/02 09:52:16;;;;;;;10.63;4.13;;;11.10;99.90;;;;;;5022278;28;20049;-90
2022/01/02 09:54:42;;;;;;;8.85;4.25;;;11.10;99.90;;;;;;5022666;28;20510;-89
2022/01/02 09:57:08;;;;;;;12.65;4.57;;;11.20;99.90;;;;;;5022280;28;20053;-90
2022/01/02 09:59:34;;;;;;;9.25;3.80;;;11.20;99.90;;;;;;5021968;28;20503;-92
2022/01/02 10:02:01;;;;;;;9.57;3.70;;;11.20;99.90;;;;;;5022437;28;20057;-89
2022/01/02 10:04:35;;;;;;;10.48;3.50;;;11.10;99.90;;;;;;5021813;28;20086;-92
2022/01/02 10:07:02;;;;;;;10.13;3.75;;;11.30;99.90;;;;;;5022045;28;20056;-94
2022/01/02 10:09:36;;;;;;;9.13;3.88;;;11.30;99.90;;;;;;5022388;28;20048;-93
2022/01/02 10:12:25;;;;;;;10.80;3.97;;;11.30;99.90;;;;;;5021675;28;20106;-92
2022/01/02 10:15:06;;;;;;;10.52;3.50;;;11.30;99.90;;;;;;5021917;28;20052;-90
2022/01/02 10:17:51;;;;;;;8.98;3.65;;;11.30;99.90;;;;;;5022120;28;20091;-92
2022/01/02 10:20:17;;;;;;;10.80;4.13;;;11.30;99.90;;;;;;5022405;28;20136;-91
2022/01/02 10:23:04;;;;;;;9.38;4.10;;;11.30;99.90;;;;;;5022113;28;20483;-90
2022/01/02 10:25:44;;;;;;;8.93;3.50;;;11.40;99.90;;;;;;5037579;28;20061;-92
2022/01/02 10:28:38;;;;;;;11.27;3.75;;;11.40;99.90;;;;;;5021847;28;20045;-92
2022/01/02 10:31:14;;;;;;;11.02;4.38;;;11.40;99.90;;;;;;5022217;28;20506;-92
2022/01/02 10:33:53;;;;;;;7.00;3.53;;;11.50;99.90;;;;;;5021383;28;20064;-93
2022/01/02 10:36:42;;;;;;;10.80;3.60;;;11.50;99.90;;;;;;5021517;28;20044;-93
2022/01/02 10:39:18;;;;;;;7.53;3.50;;;11.50;99.90;;;;;;5021205;28;20499;-92
2022/01/02 10:41:46;;;;;;;10.55;4.47;;;11.60;99.90;;;;;;5021709;28;20483;-92
2022/01/02 10:44:26;;;;;;;11.80;3.75;;;11.60;99.90;;;;;;5021140;28;20459;-89
2022/01/02 10:47:17;;;;;;;9.85;4.95;;;11.50;99.90;;;;;;5032345;28;20052;-93
2022/01/02 10:50:07;;;;;;;12.68;4.45;;;11.50;99.90;;;;;;5030697;28;20052;-91
2022/01/02 10:52:34;;;;;;;9.95;3.95;;;11.60;99.90;;;;;;4978101;28;20056;-90
2022/01/02 10:55:14;;;;;;;8.18;3.60;;;11.70;99.90;;;;;;4984993;28;20120;-90
2022/01/02 10:57:42;;;;;;;10.75;3.88;;;11.70;99.90;;;;;;5010205;28;20085;-91
2022/01/02 11:00:10;;;;;;;11.55;4.05;;;11.70;99.90;;;;;;4977633;28;20158;-91
2022/01/02 11:02:36;;;;;;;10.43;4.22;;;11.70;99.90;;;;;;4977149;28;20104;-94
2022/01/02 11:05:05;;;;;;;9.77;4.80;;;11.70;99.90;;;;;;4977506;28;20050;-92
2022/01/02 11:07:40;;;;;;;10.45;4.60;;;11.70;99.90;;;;;;4977568;28;20054;-92
2022/01/02 11:10:07;;;;;;;8.40;4.45;;;11.70;99.90;;;;;;4980047;28;20045;-91
2022/01/02 11:12:36;;;;;;;12.30;5.32;;;11.60;99.90;;;;;;4986035;28;20047;-92
2022/01/02 11:15:03;;;;;;;14.45;4.40;;;11.70;99.90;;;;;;4978343;28;20092;-93
2022/01/02 11:17:29;;;;;;;9.80;4.15;;;11.60;99.90;;;;;;4971594;28;20060;-94
2022/01/02 11:19:55;;;;;;;15.15;4.97;;;11.90;99.90;;;;;;4979668;28;20050;-90
2022/01/02 11:22:31;;;;;;;17.38;4.60;;;11.60;99.90;;;;;;4984704;28;20427;-91
2022/01/02 11:25:09;;;;;;;9.48;4.03;;;11.90;99.90;;;;;;4993166;28;20065;-92
2022/01/02 11:27:47;;;;;;;12.55;4.30;;;11.80;99.90;;;;;;4986313;28;20054;-93
2022/01/02 11:30:31;;;;;;;15.02;4.22;;;11.80;99.90;;;;;;5020718;28;20053;-92
2022/01/02 11:33:03;;;;;;;12.45;4.10;;;11.80;99.90;;;;;;5030615;28;20045;-92
2022/01/02 11:35:31;;;;;;;9.55;3.78;;;11.80;99.90;;;;;;5032221;28;20498;-93
2022/01/02 11:38:02;;;;;;;9.48;4.10;;;11.80;99.90;;;;;;5032215;28;20140;-92
2022/01/02 11:40:48;;;;;;;12.05;3.53;;;11.80;99.90;;;;;;5056646;28;20506;-93
2022/01/02 11:43:35;;;;;;;12.88;4.18;;;11.80;99.90;;;;;;5040050;28;20048;-93
2022/01/02 11:46:18;;;;;;;9.07;3.85;;;11.80;99.90;;;;;;5040198;28;20131;-92
2022/01/02 11:49:15;;;;;;;8.55;3.78;;;11.80;99.90;;;;;;5035150;28;20067;-93
2022/01/02 11:51:47;;;;;;;9.75;3.70;;;11.90;99.90;;;;;;5038372;28;20044;-94
2022/01/02 11:54:32;;;;;;;11.70;3.58;;;11.80;99.90;;;;;;5043849;28;20102;-94
2022/01/02 11:57:16;;;;;;;11.95;3.47;;;12.00;99.90;;;;;;5032224;28;20045;-91
2022/01/02 11:59:43;;;;;;;10.35;3.67;;;11.90;99.90;;;;;;5057247;28;20087;-93
2022/01/02 12:02:13;;;;;;;10.55;3.30;;;11.80;99.90;;;;;;5039977;28;20048;-92
2022/01/02 12:04:57;;;;;;;13.93;4.20;;;11.80;99.90;;;;;;5033297;28;20048;-91
2022/01/02 12:07:35;;;;;;;12.77;4.25;;;11.90;99.90;;;;;;5032346;28;20167;-91
2022/01/02 12:10:16;;;;;;;14.27;4.18;;;11.80;99.90;;;;;;5033666;28;20048;-93
2022/01/02 12:15:35;;;;;;;8.77;3.53;;;11.90;99.90;;;;;;5055740;28;20051;-93
2022/01/02 12:18:26;;;;;;;9.73;4.00;;;11.90;99.90;;;;;;5055084;28;20051;-91
2022/01/02 12:20:52;;;;;;;10.65;4.03;;;11.90;99.90;;;;;;5031051;28;20494;-93
2022/01/02 12:23:36;;;;;;;12.43;4.40;;;11.90;99.90;;;;;;5039157;28;20083;-93
2022/01/02 12:26:05;;;;;;;10.05;3.42;;;11.80;99.90;;;;;;5033167;28;20383;-91
2022/01/02 12:28:44;;;;;;;10.02;3.50;;;11.90;99.90;;;;;;5039447;28;20513;-92
2022/01/02 12:31:14;;;;;;;8.60;3.72;;;11.80;99.90;;;;;;5038439;28;20048;-92
2022/01/02 12:33:41;;;;;;;12.00;4.18;;;11.90;99.90;;;;;;5047326;28;20048;-92
2022/01/02 12:36:15;;;;;;;8.80;3.80;;;11.90;99.90;;;;;;5038612;28;20084;-93
2022/01/02 12:39:11;;;;;;;11.75;3.17;;;11.90;99.90;;;;;;5030316;28;20048;-94
2022/01/02 12:41:39;;;;;;;11.70;3.20;;;11.90;99.90;;;;;;4966180;28;20054;-92
2022/01/02 12:44:07;;;;;;;17.30;3.03;;;11.90;99.90;;;;;;4964040;28;20066;-91
2022/01/02 12:46:38;;;;;;;10.35;2.97;;;12.00;99.90;;;;;;4954484;28;20133;-92
2022/01/02 12:49:19;;;;;;;10.10;1.92;;;12.10;99.90;;;;;;4954716;28;20051;-91
2022/01/02 12:51:50;;;;;;;9.10;2.20;;;12.20;99.90;;;;;;4983211;28;20381;-91
2022/01/02 12:54:27;;;;;;;11.60;2.17;;;12.20;99.90;;;;;;4997966;28;20065;-90
2022/01/02 12:56:55;;;;;;;10.80;2.50;;;12.10;99.90;;;;;;4970989;28;20508;-93
2022/01/02 12:59:25;;;;;;;13.02;2.53;;;12.20;99.90;;;;;;4975648;28;20054;-94